Alcalde, New Mexico
Current Conditions -  °F | °C
As of 4:15 PM on Wednesday 22 Oct 2014 (Local Time) from KLAM Reporting Station
Broken Clouds Broken Clouds  
Wind Chill: 16°   Ceiling: 9000
Heat Index: 16°   Visibility: 10mi
Dew Point:   Wind: 3mph
Humidity: 45%   Direction: 130°SE
Pressure: 30.22"   Gusts: NA
Location:  36.09°N, 106.06°W
Report Text: KLAM 222215Z AUTO 13003KT 10SM BKN090 16/04 A3022 RMK AO2 T01640044
Loading
Personal Weather Stations






























Interactive Weather Map
Tropical Storm Tracking
New forecast layout! Learn more

10-Day Weather Forecast

Advertisements
Track Severe Weather on mobile